Time;durP1;ratioP1;P1;durP2;ratioP2;P2;SDS_P1;SDS_P2;PMS_P1;PMS_P2;Temp;Humidity;BMP_temperature;BMP_pressure;BME280_temperature;BME280_humidity;BME280_pressure;Samples;Min_cycle;Max_cycle;Signal;HPM_P1;HPM_P2
2021/10/15 00:00:47;;;;;;;11.17;8.40;;;10.10;99.90;;;;;;5060465;28;20212;-67
2021/10/15 00:03:14;;;;;;;10.60;8.83;;;10.20;99.90;;;;;;5064226;28;20212;-68
2021/10/15 00:05:42;;;;;;;11.03;8.70;;;10.20;99.90;;;;;;5055345;28;20233;-68
2021/10/15 00:08:09;;;;;;;10.73;8.00;;;10.20;99.90;;;;;;5058944;28;20202;-68
2021/10/15 00:10:36;;;;;;;10.07;7.47;;;10.20;99.90;;;;;;5064333;28;20624;-69
2021/10/15 00:13:03;;;;;;;9.37;7.43;;;10.20;99.90;;;;;;5053772;28;20210;-69
2021/10/15 00:15:30;;;;;;;9.93;7.53;;;10.20;99.90;;;;;;5055691;28;20310;-70
2021/10/15 00:17:57;;;;;;;9.77;7.00;;;10.20;99.90;;;;;;5053425;28;20292;-68
2021/10/15 00:20:24;;;;;;;9.50;7.50;;;10.20;99.90;;;;;;5053974;28;20533;-68
2021/10/15 00:22:52;;;;;;;8.63;7.10;;;10.30;99.90;;;;;;5053763;28;20335;-68
2021/10/15 00:25:19;;;;;;;8.03;6.97;;;10.20;99.90;;;;;;5052693;28;20210;-68
2021/10/15 00:27:45;;;;;;;9.20;6.83;;;10.20;99.90;;;;;;5062060;28;20262;-68
2021/10/15 00:30:12;;;;;;;8.37;6.77;;;10.30;99.90;;;;;;5057031;28;20253;-69
2021/10/15 00:32:40;;;;;;;8.83;6.70;;;10.30;99.90;;;;;;5062423;28;20206;-68
2021/10/15 00:35:07;;;;;;;10.00;7.03;;;10.30;99.90;;;;;;5068131;28;20220;-69
2021/10/15 00:37:34;;;;;;;8.23;7.07;;;10.30;99.90;;;;;;5057607;28;20229;-68
2021/10/15 00:40:02;;;;;;;7.60;6.57;;;10.30;99.90;;;;;;5053440;28;20210;-68
2021/10/15 00:42:29;;;;;;;7.77;6.17;;;10.30;99.90;;;;;;5059145;28;20205;-69
2021/10/15 00:44:56;;;;;;;7.80;6.07;;;10.40;99.90;;;;;;5061141;28;20220;-69
2021/10/15 00:47:23;;;;;;;6.90;6.00;;;10.20;99.90;;;;;;5052874;28;20206;-69
2021/10/15 00:49:50;;;;;;;6.57;5.67;;;10.30;99.90;;;;;;5053487;28;20312;-69
2021/10/15 00:52:17;;;;;;;6.70;5.60;;;10.40;99.90;;;;;;5060831;28;20210;-69
2021/10/15 00:54:44;;;;;;;7.60;5.67;;;10.30;99.90;;;;;;5053153;28;20209;-68
2021/10/15 00:57:14;;;;;;;7.43;5.47;;;10.20;99.90;;;;;;5053215;28;20245;-68
2021/10/15 00:59:41;;;;;;;8.67;5.77;;;10.30;99.90;;;;;;5053024;28;20190;-67
2021/10/15 01:02:08;;;;;;;7.37;5.47;;;10.30;99.90;;;;;;5058963;28;20565;-68
2021/10/15 01:04:35;;;;;;;6.67;5.50;;;10.30;99.90;;;;;;5056538;28;20297;-68
2021/10/15 01:07:02;;;;;;;6.57;5.10;;;10.30;99.90;;;;;;5052984;28;20212;-68
2021/10/15 01:09:29;;;;;;;6.57;5.80;;;10.30;99.90;;;;;;5054004;28;20218;-69
2021/10/15 01:11:56;;;;;;;5.93;5.20;;;10.30;99.90;;;;;;5065836;28;20214;-69
2021/10/15 01:14:25;;;;;;;7.07;5.47;;;10.30;99.90;;;;;;5058534;28;20205;-69
2021/10/15 01:16:52;;;;;;;8.37;6.30;;;10.30;99.90;;;;;;5052745;28;20212;-68
2021/10/15 01:19:19;;;;;;;7.27;6.07;;;10.30;99.90;;;;;;5065622;28;20292;-68
2021/10/15 01:21:47;;;;;;;8.20;6.03;;;10.30;99.90;;;;;;5068613;28;20201;-69
2021/10/15 01:24:17;;;;;;;7.23;6.00;;;10.20;99.90;;;;;;5054217;28;20232;-69
2021/10/15 01:26:44;;;;;;;8.63;6.40;;;10.20;99.90;;;;;;5053272;28;20214;-69
2021/10/15 01:29:12;;;;;;;8.33;6.23;;;10.20;99.90;;;;;;5052634;28;20233;-69
2021/10/15 01:31:39;;;;;;;7.43;6.50;;;10.20;99.90;;;;;;5054974;28;20610;-70
2021/10/15 01:34:05;;;;;;;9.73;7.47;;;10.30;99.90;;;;;;5065683;28;20639;-68
2021/10/15 01:36:32;;;;;;;9.47;7.07;;;10.30;99.90;;;;;;5052530;28;20237;-69
2021/10/15 01:39:01;;;;;;;10.63;7.77;;;10.30;99.90;;;;;;5056790;28;20292;-69
2021/10/15 01:41:28;;;;;;;11.73;7.23;;;10.30;99.90;;;;;;5058697;28;20212;-68
2021/10/15 01:43:55;;;;;;;10.50;8.13;;;10.30;99.90;;;;;;5068460;28;20205;-69
2021/10/15 01:46:22;;;;;;;11.33;8.83;;;10.20;99.90;;;;;;5066165;28;20202;-68
2021/10/15 01:48:48;;;;;;;10.70;9.27;;;10.20;99.90;;;;;;5063375;28;20201;-68
2021/10/15 01:51:15;;;;;;;12.60;8.77;;;10.30;99.90;;;;;;5060573;28;20651;-68
2021/10/15 01:53:42;;;;;;;13.00;9.23;;;10.30;99.90;;;;;;5058716;28;20236;-68
2021/10/15 01:56:11;;;;;;;12.20;9.33;;;10.30;99.90;;;;;;5057138;28;20206;-68
2021/10/15 01:58:37;;;;;;;13.93;9.70;;;10.30;99.90;;;;;;5064786;28;20303;-68
2021/10/15 02:01:05;;;;;;;13.33;10.23;;;10.30;99.90;;;;;;5069479;28;20202;-68
2021/10/15 02:03:31;;;;;;;14.33;11.10;;;10.30;99.90;;;;;;5061165;28;20216;-67
2021/10/15 02:05:58;;;;;;;12.30;10.03;;;10.30;99.90;;;;;;5055823;28;20577;-68
2021/10/15 02:08:25;;;;;;;12.87;10.10;;;10.30;99.90;;;;;;5055859;28;20198;-67
2021/10/15 02:10:52;;;;;;;13.57;10.60;;;10.30;99.90;;;;;;5068241;28;20228;-69
2021/10/15 02:13:20;;;;;;;13.70;10.57;;;10.40;99.90;;;;;;5058174;28;20650;-68
2021/10/15 02:15:47;;;;;;;13.87;10.53;;;10.40;99.90;;;;;;5061785;28;20368;-68
2021/10/15 02:18:14;;;;;;;14.70;11.00;;;10.40;99.90;;;;;;5059434;28;20645;-68
2021/10/15 02:20:41;;;;;;;13.73;10.17;;;10.40;99.90;;;;;;5057134;28;20206;-67
2021/10/15 02:23:07;;;;;;;14.17;10.47;;;10.40;99.90;;;;;;5057400;28;20210;-67
2021/10/15 02:25:34;;;;;;;17.50;10.57;;;10.40;99.90;;;;;;5075741;28;20213;-68
2021/10/15 02:28:01;;;;;;;13.37;10.53;;;10.40;99.90;;;;;;5066891;28;20265;-67
2021/10/15 02:30:29;;;;;;;14.97;11.47;;;10.40;99.90;;;;;;5075293;28;20939;-68
2021/10/15 02:32:56;;;;;;;14.43;11.40;;;10.50;99.90;;;;;;5073282;28;20205;-69
2021/10/15 02:35:23;;;;;;;21.23;12.63;;;10.40;99.90;;;;;;5075475;28;20205;-69
2021/10/15 02:37:50;;;;;;;14.87;11.97;;;10.40;99.90;;;;;;5068454;28;20208;-68
2021/10/15 02:40:17;;;;;;;18.37;12.37;;;10.50;99.90;;;;;;5059742;28;20204;-69
2021/10/15 02:42:44;;;;;;;22.20;13.07;;;10.50;99.90;;;;;;5063185;28;20206;-68
2021/10/15 02:45:11;;;;;;;19.70;13.17;;;10.50;99.90;;;;;;5068321;28;20228;-67
2021/10/15 02:47:40;;;;;;;19.63;13.37;;;10.50;99.90;;;;;;5075060;28;20212;-69
2021/10/15 02:50:08;;;;;;;20.97;13.33;;;10.50;99.90;;;;;;5074474;28;20558;-67
2021/10/15 02:52:34;;;;;;;21.10;13.30;;;10.40;99.90;;;;;;5070103;28;20566;-68
2021/10/15 02:55:01;;;;;;;21.77;14.30;;;10.40;99.90;;;;;;5054785;28;20197;-68
2021/10/15 02:57:28;;;;;;;21.73;14.57;;;10.50;99.90;;;;;;5058893;28;20215;-68
2021/10/15 02:59:55;;;;;;;22.33;14.37;;;10.50;99.90;;;;;;5072153;28;20204;-69
2021/10/15 03:02:22;;;;;;;24.50;14.30;;;10.50;99.90;;;;;;5068735;28;21018;-68
2021/10/15 03:04:50;;;;;;;23.20;14.87;;;10.50;99.90;;;;;;5056513;28;20206;-68
2021/10/15 03:07:17;;;;;;;26.47;14.97;;;10.50;99.90;;;;;;5063150;28;20658;-68
2021/10/15 03:09:48;;;;;;;22.80;14.93;;;10.50;99.90;;;;;;5063713;28;20217;-69
2021/10/15 03:12:15;;;;;;;24.53;14.63;;;10.40;99.90;;;;;;5055721;28;20578;-69
2021/10/15 03:14:42;;;;;;;19.73;13.73;;;10.50;99.90;;;;;;5054518;28;20206;-70
2021/10/15 03:17:08;;;;;;;25.97;15.90;;;10.50;99.90;;;;;;5054841;28;20206;-68
2021/10/15 03:19:36;;;;;;;21.97;14.97;;;10.50;99.90;;;;;;5055321;28;20206;-68
2021/10/15 03:22:04;;;;;;;24.93;15.87;;;10.50;99.90;;;;;;5058229;28;20209;-69
2021/10/15 03:24:31;;;;;;;23.33;15.47;;;10.60;99.90;;;;;;5061867;28;20217;-69
2021/10/15 03:26:58;;;;;;;24.87;15.73;;;10.60;99.90;;;;;;5060366;28;20573;-68
2021/10/15 03:29:24;;;;;;;24.63;15.23;;;10.60;99.90;;;;;;5063963;28;20337;-69
2021/10/15 03:31:51;;;;;;;22.73;15.27;;;10.60;99.90;;;;;;5068886;28;20541;-68
2021/10/15 03:34:18;;;;;;;23.87;15.63;;;10.60;99.90;;;;;;5054600;28;20206;-68
2021/10/15 03:36:45;;;;;;;23.10;15.00;;;10.60;99.90;;;;;;5068129;28;20236;-67
2021/10/15 03:39:14;;;;;;;23.70;16.23;;;10.60;99.90;;;;;;5054562;28;20206;-67
2021/10/15 03:41:41;;;;;;;21.80;14.97;;;10.70;99.90;;;;;;5063668;28;20231;-68
2021/10/15 03:44:08;;;;;;;20.73;15.50;;;10.70;99.90;;;;;;5054619;28;20314;-69
2021/10/15 03:46:35;;;;;;;23.13;15.93;;;10.70;99.90;;;;;;5054210;28;20202;-69
2021/10/15 03:49:02;;;;;;;23.50;16.33;;;10.70;99.90;;;;;;5070065;28;20206;-69
2021/10/15 03:51:29;;;;;;;20.87;14.70;;;10.70;99.90;;;;;;5060669;28;20229;-68
2021/10/15 03:53:55;;;;;;;21.27;14.03;;;10.70;99.90;;;;;;5055332;28;20206;-68
2021/10/15 03:56:24;;;;;;;22.60;15.53;;;10.70;99.90;;;;;;5058774;28;20285;-68
2021/10/15 03:58:50;;;;;;;20.17;14.87;;;10.70;99.90;;;;;;5054707;28;20288;-69
2021/10/15 04:01:17;;;;;;;20.27;14.50;;;10.70;99.90;;;;;;5062425;28;20208;-69
2021/10/15 04:03:44;;;;;;;21.43;15.63;;;10.70;99.90;;;;;;5052676;28;20668;-68
2021/10/15 04:06:11;;;;;;;21.27;14.73;;;10.70;99.90;;;;;;5067925;28;20564;-69
2021/10/15 04:08:38;;;;;;;18.77;14.13;;;10.70;99.90;;;;;;5061669;28;20576;-69
2021/10/15 04:11:05;;;;;;;19.20;14.63;;;10.70;99.90;;;;;;5069144;28;20626;-69
2021/10/15 04:13:33;;;;;;;19.70;14.63;;;10.70;99.90;;;;;;5053738;28;20237;-68
2021/10/15 04:16:01;;;;;;;19.67;14.53;;;10.70;99.90;;;;;;5057173;28;20210;-68
2021/10/15 04:18:28;;;;;;;19.80;15.10;;;10.70;99.90;;;;;;5054003;28;20224;-68
2021/10/15 04:20:55;;;;;;;21.13;14.83;;;10.80;99.90;;;;;;5057495;28;20205;-69
2021/10/15 04:23:22;;;;;;;20.60;14.27;;;10.70;99.90;;;;;;5057692;28;20209;-68
2021/10/15 04:25:49;;;;;;;17.10;13.60;;;10.80;99.90;;;;;;5053357;28;20208;-68
2021/10/15 04:28:18;;;;;;;18.57;14.77;;;10.80;99.90;;;;;;5054671;28;20233;-69
2021/10/15 04:30:47;;;;;;;19.30;14.27;;;10.80;99.90;;;;;;5053127;28;20218;-68
2021/10/15 04:33:14;;;;;;;17.67;13.90;;;10.80;99.90;;;;;;5053334;28;20209;-68
2021/10/15 04:35:40;;;;;;;18.33;14.30;;;10.80;99.90;;;;;;5052982;28;20234;-69
2021/10/15 04:38:07;;;;;;;17.63;13.07;;;10.90;99.90;;;;;;5053113;28;20624;-69
2021/10/15 04:40:34;;;;;;;17.93;13.70;;;10.80;99.90;;;;;;5054019;28;20202;-69
2021/10/15 04:43:01;;;;;;;17.43;13.87;;;10.80;99.90;;;;;;5053626;28;20212;-69
2021/10/15 04:45:28;;;;;;;18.27;13.20;;;10.80;99.90;;;;;;5068401;28;20224;-68
2021/10/15 04:47:56;;;;;;;18.23;13.17;;;10.80;99.90;;;;;;5053075;28;20232;-69
2021/10/15 04:50:23;;;;;;;16.03;13.13;;;10.80;99.90;;;;;;5066619;28;20224;-69
2021/10/15 04:52:50;;;;;;;17.83;13.87;;;10.90;99.90;;;;;;5055678;28;20214;-69
2021/10/15 04:55:17;;;;;;;17.67;13.20;;;10.90;99.90;;;;;;5060914;28;20213;-69
2021/10/15 04:57:44;;;;;;;17.60;13.70;;;10.90;99.90;;;;;;5053093;28;20237;-69
2021/10/15 05:00:12;;;;;;;15.63;12.33;;;10.90;99.90;;;;;;5057422;28;20225;-69
2021/10/15 05:02:40;;;;;;;16.03;13.57;;;10.90;99.90;;;;;;5067194;28;20233;-69
2021/10/15 05:05:09;;;;;;;19.03;13.93;;;10.90;99.90;;;;;;5052909;28;20555;-70
2021/10/15 05:07:37;;;;;;;18.30;12.53;;;10.90;99.90;;;;;;5052372;28;20214;-68
2021/10/15 05:10:04;;;;;;;16.43;13.13;;;10.90;99.90;;;;;;5064294;28;20236;-68
2021/10/15 05:12:31;;;;;;;17.37;13.73;;;10.90;99.90;;;;;;5052623;28;20224;-68
2021/10/15 05:14:58;;;;;;;18.53;13.80;;;10.90;99.90;;;;;;5056286;28;20213;-69
2021/10/15 05:17:25;;;;;;;17.70;12.60;;;10.90;99.90;;;;;;5055731;28;20206;-68
2021/10/15 05:19:52;;;;;;;16.50;13.13;;;10.90;99.90;;;;;;5057400;28;20205;-69
2021/10/15 05:22:20;;;;;;;17.00;13.33;;;10.90;99.90;;;;;;5061173;28;20216;-68
2021/10/15 05:24:47;;;;;;;18.00;13.87;;;10.90;99.90;;;;;;5052110;28;20575;-70
2021/10/15 05:27:14;;;;;;;17.17;13.20;;;11.00;99.90;;;;;;5052562;28;20209;-74
2021/10/15 05:29:47;;;;;;;19.87;13.70;;;10.90;99.90;;;;;;5053377;28;20332;-75
2021/10/15 05:32:14;;;;;;;19.07;13.43;;;11.00;99.90;;;;;;5063719;28;20201;-74
2021/10/15 05:34:41;;;;;;;17.70;12.80;;;10.90;99.90;;;;;;5057534;28;20702;-73
2021/10/15 05:37:08;;;;;;;18.03;13.77;;;11.00;99.90;;;;;;5068833;28;20221;-74
2021/10/15 05:39:36;;;;;;;20.40;14.33;;;11.00;99.90;;;;;;5062161;28;20336;-73
2021/10/15 05:42:05;;;;;;;18.70;13.50;;;11.00;99.90;;;;;;5056158;28;20707;-75
2021/10/15 05:44:31;;;;;;;16.27;13.13;;;11.00;99.90;;;;;;5053134;28;20214;-74
2021/10/15 05:47:00;;;;;;;21.90;13.93;;;11.00;99.90;;;;;;5057456;28;20239;-74
2021/10/15 05:49:27;;;;;;;16.43;12.70;;;11.00;99.90;;;;;;5057207;28;20757;-74
2021/10/15 05:52:02;;;;;;;16.57;13.53;;;11.00;99.90;;;;;;5068241;28;20280;-74
2021/10/15 05:54:34;;;;;;;20.27;14.10;;;11.00;99.90;;;;;;5064470;28;20239;-75
2021/10/15 05:57:16;;;;;;;19.60;13.73;;;11.00;99.90;;;;;;5052603;28;20654;-74
2021/10/15 05:59:42;;;;;;;17.57;13.47;;;11.10;99.90;;;;;;5053754;28;20205;-74
2021/10/15 06:02:09;;;;;;;18.50;13.93;;;11.10;99.90;;;;;;5058717;28;20210;-73
2021/10/15 06:15:39;;;;;;;17.33;13.90;;;11.10;99.90;;;;;;5062256;28;20631;-77
2021/10/15 06:18:12;;;;;;;17.70;13.07;;;11.20;99.90;;;;;;5069253;28;20244;-76
2021/10/15 06:20:40;;;;;;;20.10;15.67;;;11.20;99.90;;;;;;5060977;28;20243;-73
2021/10/15 06:23:07;;;;;;;20.77;13.80;;;11.20;99.90;;;;;;5061658;28;20206;-73
2021/10/15 06:25:35;;;;;;;20.40;15.47;;;11.20;99.90;;;;;;5073051;28;20257;-73
2021/10/15 06:28:04;;;;;;;19.10;14.07;;;11.20;99.90;;;;;;5068929;28;20194;-72
2021/10/15 06:30:32;;;;;;;21.87;15.03;;;11.30;99.90;;;;;;5073123;28;20304;-72
2021/10/15 06:32:59;;;;;;;16.97;13.43;;;11.40;99.90;;;;;;5075382;28;20300;-71
2021/10/15 06:35:26;;;;;;;20.47;15.47;;;11.40;99.90;;;;;;5065803;28;20244;-71
2021/10/15 06:37:53;;;;;;;16.57;13.07;;;11.40;99.90;;;;;;5071480;28;20304;-71
2021/10/15 06:40:20;;;;;;;19.97;14.07;;;11.40;99.90;;;;;;5060292;28;20297;-69
2021/10/15 06:42:48;;;;;;;21.17;14.73;;;11.40;99.90;;;;;;5066733;28;20600;-71
2021/10/15 06:45:16;;;;;;;17.23;13.30;;;11.40;99.90;;;;;;5069346;28;20220;-72
2021/10/15 06:47:43;;;;;;;18.90;14.03;;;11.40;99.90;;;;;;5069633;28;20296;-68
2021/10/15 06:50:11;;;;;;;16.87;14.03;;;11.40;99.90;;;;;;5067964;28;20208;-68
2021/10/15 06:52:46;;;;;;;17.43;13.20;;;11.40;99.90;;;;;;5072261;28;20572;-68
2021/10/15 06:55:14;;;;;;;16.80;13.57;;;11.40;99.90;;;;;;5057358;28;20716;-70
2021/10/15 06:57:41;;;;;;;19.93;14.13;;;11.50;99.90;;;;;;5066601;28;20554;-71
2021/10/15 07:00:09;;;;;;;20.03;14.67;;;11.50;99.90;;;;;;5056651;28;20578;-70
2021/10/15 07:02:38;;;;;;;18.33;13.57;;;11.50;99.90;;;;;;5054704;28;20206;-71
2021/10/15 07:05:06;;;;;;;17.13;13.43;;;11.50;99.90;;;;;;5055044;28;20647;-70
2021/10/15 07:07:33;;;;;;;18.33;13.70;;;11.60;99.90;;;;;;5054617;28;20662;-71
2021/10/15 07:10:02;;;;;;;18.27;13.63;;;11.60;99.90;;;;;;5062060;28;20245;-71
2021/10/15 07:12:32;;;;;;;16.57;13.43;;;11.60;99.90;;;;;;5053802;28;20225;-70
2021/10/15 07:14:59;;;;;;;18.00;13.97;;;11.70;99.90;;;;;;5061125;28;20645;-69
2021/10/15 07:17:27;;;;;;;16.13;13.60;;;11.60;99.90;;;;;;5057585;28;20229;-70
2021/10/15 07:19:55;;;;;;;22.67;16.27;;;11.70;99.90;;;;;;5063444;28;20209;-70
2021/10/15 07:22:22;;;;;;;17.93;13.77;;;11.80;99.90;;;;;;5062271;28;20205;-70
2021/10/15 07:24:49;;;;;;;16.47;13.00;;;11.80;99.90;;;;;;5060336;28;20245;-70
2021/10/15 07:27:15;;;;;;;17.20;13.10;;;11.80;99.90;;;;;;5057358;28;20212;-69
2021/10/15 07:29:42;;;;;;;17.67;12.23;;;11.90;99.90;;;;;;5054689;28;20268;-68
2021/10/15 07:32:09;;;;;;;14.30;12.40;;;11.90;99.90;;;;;;5054626;28;20222;-70
2021/10/15 07:34:37;;;;;;;19.00;13.40;;;12.00;99.90;;;;;;5063366;28;20216;-71
2021/10/15 07:37:06;;;;;;;17.07;13.70;;;11.90;99.90;;;;;;5058706;28;20225;-71
2021/10/15 07:39:33;;;;;;;15.20;12.53;;;12.00;99.90;;;;;;5056668;28;20297;-70
2021/10/15 07:42:00;;;;;;;15.13;11.53;;;12.00;99.90;;;;;;5065482;28;20209;-70
2021/10/15 07:44:27;;;;;;;17.57;12.87;;;12.00;99.90;;;;;;5063398;28;20661;-70
2021/10/15 07:46:54;;;;;;;18.23;13.17;;;12.00;99.90;;;;;;5053479;28;20626;-71
2021/10/15 07:49:21;;;;;;;16.13;12.30;;;12.10;99.90;;;;;;5055432;28;20202;-70
2021/10/15 07:51:48;;;;;;;15.67;11.83;;;12.10;99.90;;;;;;5062086;28;20229;-71
2021/10/15 07:54:16;;;;;;;14.93;11.97;;;12.10;99.90;;;;;;5062581;28;20288;-70
2021/10/15 07:56:43;;;;;;;14.73;11.33;;;10.70;99.90;;;;;;5057759;28;20236;-70
2021/10/15 07:59:11;;;;;;;14.77;11.77;;;12.10;99.90;;;;;;5052808;28;20661;-71
2021/10/15 08:01:38;;;;;;;17.33;11.80;;;12.10;99.90;;;;;;5065701;28;20232;-70
2021/10/15 08:04:05;;;;;;;13.90;11.30;;;12.20;99.90;;;;;;5058209;28;20228;-69
2021/10/15 08:06:33;;;;;;;16.30;11.93;;;12.20;99.90;;;;;;5054216;28;20703;-69
2021/10/15 08:08:59;;;;;;;14.40;11.63;;;12.30;99.90;;;;;;5053172;28;20411;-69
2021/10/15 08:11:28;;;;;;;32.10;17.67;;;12.40;99.90;;;;;;5059425;28;20236;-69
2021/10/15 08:13:55;;;;;;;16.00;11.67;;;12.50;99.90;;;;;;5059552;28;20649;-69
2021/10/15 08:16:23;;;;;;;18.17;12.40;;;12.50;99.90;;;;;;5070367;28;20729;-69
2021/10/15 08:18:50;;;;;;;14.03;11.63;;;12.50;99.90;;;;;;5055138;28;20233;-69
2021/10/15 08:21:19;;;;;;;16.33;10.83;;;12.60;99.90;;;;;;5055132;28;20289;-70
2021/10/15 08:23:46;;;;;;;12.70;10.70;;;12.70;99.90;;;;;;5067848;28;20297;-69
2021/10/15 08:26:14;;;;;;;19.33;11.77;;;12.80;99.90;;;;;;5064368;28;20690;-70
2021/10/15 08:28:44;;;;;;;12.17;10.23;;;12.80;99.90;;;;;;5067311;28;20328;-68
2021/10/15 08:31:12;;;;;;;13.87;10.60;;;12.90;99.90;;;;;;5064173;28;20245;-69
2021/10/15 08:33:40;;;;;;;13.20;9.87;;;13.00;99.90;;;;;;5066718;28;20208;-71
2021/10/15 08:36:08;;;;;;;13.07;10.53;;;13.10;99.90;;;;;;5071649;28;20361;-69
2021/10/15 08:38:35;;;;;;;14.57;10.60;;;13.10;99.90;;;;;;5063207;28;20213;-71
2021/10/15 08:41:02;;;;;;;13.03;10.33;;;13.20;99.90;;;;;;5061814;28;20202;-69
2021/10/15 08:43:37;;;;;;;10.67;8.63;;;13.20;99.90;;;;;;5061797;28;20301;-70
2021/10/15 08:46:06;;;;;;;10.90;9.73;;;13.20;99.90;;;;;;5055369;28;20237;-69
2021/10/15 08:48:37;;;;;;;16.77;10.20;;;13.30;99.90;;;;;;5062527;28;20663;-69
2021/10/15 08:51:05;;;;;;;12.87;9.77;;;13.40;99.90;;;;;;5047737;28;20197;-70
2021/10/15 08:53:32;;;;;;;12.83;10.47;;;13.50;99.90;;;;;;5056330;28;20212;-70
2021/10/15 08:55:58;;;;;;;10.60;8.97;;;13.70;99.90;;;;;;5059729;28;20215;-69
2021/10/15 08:58:41;;;;;;;14.27;8.63;;;14.10;99.90;;;;;;5051678;28;20209;-70
2021/10/15 09:01:09;;;;;;;12.60;10.37;;;14.30;99.90;;;;;;5060855;28;20204;-69
2021/10/15 09:03:36;;;;;;;12.33;9.70;;;14.70;99.90;;;;;;5053579;28;20650;-70
2021/10/15 09:06:05;;;;;;;10.27;9.13;;;15.00;99.90;;;;;;5055894;28;20212;-69
2021/10/15 09:08:45;;;;;;;12.40;9.90;;;15.90;99.90;;;;;;5058054;28;20635;-69
2021/10/15 09:11:24;;;;;;;11.43;8.20;;;16.50;99.90;;;;;;5055308;28;20225;-70
2021/10/15 09:13:51;;;;;;;12.10;8.73;;;16.70;99.90;;;;;;5053315;28;20205;-69
2021/10/15 09:16:19;;;;;;;11.63;8.07;;;16.60;99.90;;;;;;5056966;28;20212;-70
2021/10/15 09:18:46;;;;;;;12.17;8.47;;;16.40;99.90;;;;;;5060496;28;20202;-70
2021/10/15 09:21:18;;;;;;;12.00;8.13;;;16.10;99.90;;;;;;5054020;28;20610;-69
2021/10/15 09:23:47;;;;;;;9.43;7.80;;;15.80;99.90;;;;;;5059355;28;20208;-69
2021/10/15 09:26:15;;;;;;;9.53;8.00;;;15.80;99.90;;;;;;5056652;28;20202;-70
2021/10/15 09:28:43;;;;;;;12.70;8.17;;;15.80;99.90;;;;;;5057237;28;20656;-70
2021/10/15 09:31:10;;;;;;;9.70;7.60;;;15.90;99.90;;;;;;5063103;28;20353;-69
2021/10/15 09:33:50;;;;;;;8.33;7.27;;;16.20;99.90;;;;;;5073124;28;20205;-70
2021/10/15 09:36:20;;;;;;;10.07;7.57;;;16.40;99.90;;;;;;5057442;28;20304;-70
2021/10/15 09:38:47;;;;;;;9.20;7.30;;;16.50;99.90;;;;;;5067364;28;20235;-70
2021/10/15 09:41:35;;;;;;;9.73;7.73;;;16.70;99.90;;;;;;5063665;28;20209;-70
2021/10/15 09:44:02;;;;;;;9.43;7.47;;;17.00;99.90;;;;;;5066001;28;20236;-69
2021/10/15 09:46:29;;;;;;;7.87;6.90;;;17.70;99.90;;;;;;5065794;28;20206;-70
2021/10/15 09:48:57;;;;;;;8.90;7.10;;;18.10;99.90;;;;;;5056455;28;20205;-70
2021/10/15 09:51:25;;;;;;;9.80;7.60;;;18.30;99.90;;;;;;5053941;28;20206;-70
2021/10/15 09:54:11;;;;;;;7.07;6.18;;;18.60;99.90;;;;;;5054408;28;20684;-70
2021/10/15 09:56:41;;;;;;;11.75;7.50;;;19.10;99.90;;;;;;5058505;28;20224;-70
2021/10/15 09:59:09;;;;;;;8.35;7.07;;;19.30;99.90;;;;;;5058150;28;20293;-69
2021/10/15 10:01:37;;;;;;;7.78;6.90;;;19.40;99.90;;;;;;5066924;28;20201;-70
2021/10/15 10:04:07;;;;;;;8.70;7.65;;;19.60;99.50;;;;;;5067400;28;20265;-71
2021/10/15 10:06:34;;;;;;;7.88;6.95;;;20.30;99.00;;;;;;5071890;28;20201;-71
2021/10/15 10:09:01;;;;;;;8.98;7.05;;;20.80;97.10;;;;;;5067818;28;20654;-70
2021/10/15 10:11:28;;;;;;;7.10;6.40;;;21.60;94.40;;;;;;5060879;28;20711;-70
2021/10/15 10:13:55;;;;;;;7.68;6.88;;;22.30;92.50;;;;;;5065752;28;20239;-70
2021/10/15 10:16:25;;;;;;;8.80;7.18;;;23.10;90.10;;;;;;5064679;28;20201;-70
2021/10/15 10:18:56;;;;;;;7.68;6.65;;;23.60;83.90;;;;;;5071016;28;20229;-70
2021/10/15 10:21:29;;;;;;;8.43;6.90;;;24.10;83.30;;;;;;5063868;28;20289;-69
2021/10/15 10:24:02;;;;;;;7.32;6.63;;;25.10;74.10;;;;;;5065093;28;20238;-71
2021/10/15 10:26:28;;;;;;;7.88;6.55;;;25.70;70.00;;;;;;5062844;28;20713;-70
2021/10/15 10:29:02;;;;;;;9.00;7.07;;;26.30;65.80;;;;;;5064191;28;20245;-69
2021/10/15 10:31:29;;;;;;;9.18;7.38;;;26.10;63.20;;;;;;5059748;28;20245;-70
2021/10/15 10:33:57;;;;;;;7.88;7.18;;;25.90;63.50;;;;;;5063713;28;20316;-70
2021/10/15 10:36:27;;;;;;;9.38;7.03;;;26.00;62.10;;;;;;5060887;28;20637;-69
2021/10/15 10:38:54;;;;;;;7.82;6.90;;;26.00;61.10;;;;;;5061262;28;20269;-70
2021/10/15 10:41:28;;;;;;;9.23;7.32;;;26.20;61.10;;;;;;5065128;28;20208;-69
2021/10/15 10:44:22;;;;;;;8.32;6.95;;;27.40;59.50;;;;;;5068609;28;20332;-69
2021/10/15 10:47:08;;;;;;;11.20;6.88;;;29.60;53.80;;;;;;5071860;28;20197;-69
2021/10/15 10:49:36;;;;;;;7.05;6.35;;;30.30;51.50;;;;;;5070476;28;20582;-71
2021/10/15 10:52:16;;;;;;;11.10;6.65;;;31.00;49.20;;;;;;5060993;28;20230;-70
2021/10/15 10:54:45;;;;;;;9.07;6.72;;;31.20;47.50;;;;;;5061429;28;20624;-71
2021/10/15 10:57:39;;;;;;;7.78;6.75;;;31.00;47.40;;;;;;5055839;28;20241;-71
2021/10/15 11:00:23;;;;;;;8.00;6.90;;;30.80;46.90;;;;;;5054939;28;20213;-70
2021/10/15 11:02:52;;;;;;;8.50;7.25;;;29.70;46.70;;;;;;5055316;28;20198;-69
2021/10/15 11:05:37;;;;;;;11.07;7.75;;;28.50;48.20;;;;;;5058796;28;20204;-70
2021/10/15 11:08:33;;;;;;;10.82;8.02;;;27.00;50.00;;;;;;5061424;28;20204;-71
2021/10/15 11:11:41;;;;;;;10.77;7.82;;;25.90;53.10;;;;;;5058077;28;20202;-69
2021/10/15 11:14:08;;;;;;;7.70;6.90;;;25.40;54.10;;;;;;5061159;28;20499;-69
2021/10/15 11:16:35;;;;;;;9.32;7.65;;;24.80;54.60;;;;;;5065007;28;20236;-69
2021/10/15 11:19:02;;;;;;;8.55;7.40;;;24.10;56.30;;;;;;5062287;28;20203;-70
2021/10/15 11:21:29;;;;;;;8.27;7.35;;;23.60;57.10;;;;;;5056329;28;20253;-70
2021/10/15 11:24:12;;;;;;;10.02;7.15;;;23.00;57.80;;;;;;5065381;28;20197;-70
2021/10/15 11:26:39;;;;;;;8.77;7.00;;;22.70;59.30;;;;;;5062505;28;20657;-70
2021/10/15 11:29:06;;;;;;;10.13;6.93;;;22.60;59.60;;;;;;5066969;28;20237;-71
2021/10/15 11:31:33;;;;;;;7.55;6.82;;;22.50;60.40;;;;;;5062116;28;20205;-70
2021/10/15 11:34:11;;;;;;;8.10;7.25;;;22.50;60.40;;;;;;5062638;28;20298;-70
2021/10/15 11:36:38;;;;;;;7.75;6.93;;;22.70;61.20;;;;;;5060582;28;20229;-72
2021/10/15 11:39:07;;;;;;;11.43;7.60;;;22.90;59.30;;;;;;5061787;28;20229;-72
2021/10/15 11:41:33;;;;;;;10.10;7.80;;;22.90;58.90;;;;;;5065123;28;20614;-70
2021/10/15 11:44:00;;;;;;;8.23;7.35;;;23.00;59.40;;;;;;5068968;28;20208;-70
2021/10/15 11:46:33;;;;;;;8.18;7.38;;;23.20;60.50;;;;;;5064610;28;20216;-73
2021/10/15 11:49:00;;;;;;;7.68;6.97;;;23.40;57.70;;;;;;5070420;28;20661;-72
2021/10/15 11:51:28;;;;;;;10.25;6.82;;;23.30;57.10;;;;;;5066280;28;20205;-72
2021/10/15 11:53:56;;;;;;;7.65;6.32;;;22.80;57.30;;;;;;5067602;28;20228;-73
2021/10/15 11:56:26;;;;;;;6.80;6.13;;;23.10;61.90;;;;;;5067090;28;20233;-72
2021/10/15 11:58:55;;;;;;;9.68;7.15;;;24.20;56.70;;;;;;5057390;28;20205;-71
2021/10/15 12:01:26;;;;;;;8.02;6.18;;;25.60;58.10;;;;;;5064505;28;20660;-72
2021/10/15 12:03:55;;;;;;;7.05;6.35;;;27.80;52.10;;;;;;5063991;28;20661;-72
2021/10/15 12:06:25;;;;;;;9.00;6.40;;;28.40;48.50;;;;;;5065524;28;20717;-72
2021/10/15 12:08:58;;;;;;;6.25;5.65;;;28.40;47.90;;;;;;5064181;28;20630;-70
2021/10/15 12:11:46;;;;;;;7.88;5.97;;;27.50;47.10;;;;;;5071640;28;20205;-70
2021/10/15 12:14:16;;;;;;;7.35;6.50;;;26.00;48.60;;;;;;5062949;28;20530;-71
2021/10/15 12:16:49;;;;;;;7.57;6.47;;;24.40;51.20;;;;;;5066100;28;20220;-71
2021/10/15 12:19:38;;;;;;;6.50;5.90;;;23.60;55.80;;;;;;5058920;28;20301;-69
2021/10/15 12:22:11;;;;;;;7.03;6.32;;;24.30;54.00;;;;;;5067354;28;20210;-70
2021/10/15 12:24:39;;;;;;;8.43;6.65;;;25.20;53.90;;;;;;5070338;28;20236;-69
2021/10/15 12:27:16;;;;;;;6.65;5.95;;;26.60;52.40;;;;;;5066069;28;20205;-71
2021/10/15 12:29:45;;;;;;;7.63;5.93;;;28.00;49.60;;;;;;5063431;28;20286;-71
2021/10/15 12:32:22;;;;;;;7.13;6.38;;;28.90;47.30;;;;;;5071749;28;20307;-70
2021/10/15 12:35:07;;;;;;;6.40;5.80;;;29.30;46.60;;;;;;5059018;28;20206;-69
2021/10/15 12:37:43;;;;;;;7.15;5.88;;;27.80;47.10;;;;;;5071989;28;20236;-70
2021/10/15 12:40:18;;;;;;;7.00;6.30;;;27.20;48.40;;;;;;5066671;28;20204;-69
2021/10/15 12:42:48;;;;;;;6.38;5.78;;;26.40;47.90;;;;;;5061950;28;20201;-70
2021/10/15 12:45:17;;;;;;;6.63;5.93;;;25.40;49.30;;;;;;5067508;28;20208;-70
2021/10/15 12:47:55;;;;;;;7.22;5.93;;;24.30;51.00;;;;;;5063294;28;20367;-69
2021/10/15 12:50:23;;;;;;;6.55;5.95;;;23.30;52.70;;;;;;5071307;28;20197;-70
2021/10/15 12:52:50;;;;;;;6.88;6.18;;;22.40;54.00;;;;;;5071635;28;20232;-69
2021/10/15 12:55:18;;;;;;;7.15;6.30;;;21.60;55.40;;;;;;5061994;28;20291;-71